createdAt,value
2023-01-21T00:00:20.631Z,99.60
2023-01-21T00:02:49.831Z,99.80
2023-01-21T00:05:18.975Z,99.90
2023-01-21T00:07:48.223Z,99.90
2023-01-21T00:10:18.230Z,99.90
2023-01-21T00:12:48.806Z,99.90
2023-01-21T00:15:18.047Z,99.90
2023-01-21T00:17:47.152Z,99.90
2023-01-21T00:20:16.745Z,99.90
2023-01-21T00:22:46.137Z,99.90
2023-01-21T00:25:15.325Z,99.90
2023-01-21T00:27:44.591Z,99.90
2023-01-21T00:30:14.772Z,99.90
2023-01-21T00:32:44.107Z,99.90
2023-01-21T00:35:13.234Z,99.90
2023-01-21T00:37:42.384Z,99.90
2023-01-21T00:40:15.826Z,99.90
2023-01-21T00:42:50.539Z,99.90
2023-01-21T00:45:19.833Z,99.90
2023-01-21T00:47:48.937Z,99.90
2023-01-21T00:50:18.674Z,99.90
2023-01-21T00:52:47.872Z,99.90
2023-01-21T00:55:17.075Z,99.90
2023-01-21T00:57:46.440Z,99.90
2023-01-21T01:00:17.306Z,99.90
2023-01-21T01:02:49.952Z,99.90
2023-01-21T01:05:20.396Z,99.90
2023-01-21T01:07:51.320Z,99.90
2023-01-21T01:10:20.500Z,99.90
2023-01-21T01:12:51.118Z,99.90
2023-01-21T01:15:20.377Z,99.90
2023-01-21T01:17:49.538Z,99.90
2023-01-21T01:20:21.784Z,99.90
2023-01-21T01:22:50.897Z,99.90
2023-01-21T01:25:20.152Z,99.90
2023-01-21T01:27:51.419Z,99.90
2023-01-21T01:30:23.656Z,99.90
2023-01-21T01:32:52.786Z,99.90
2023-01-21T01:35:21.964Z,99.80
2023-01-21T01:37:51.084Z,99.90
2023-01-21T01:40:20.278Z,99.70
2023-01-21T01:42:49.511Z,99.60
2023-01-21T01:45:23.040Z,99.30
2023-01-21T01:48:03.569Z,99.10
2023-01-21T01:50:38.696Z,98.80
2023-01-21T01:53:09.303Z,98.70
2023-01-21T01:55:40.952Z,98.60
2023-01-21T01:58:17.079Z,98.30
2023-01-21T02:00:46.635Z,98.20
2023-01-21T02:03:36.082Z,98.00
2023-01-21T02:06:05.772Z,98.00
2023-01-21T02:08:37.150Z,97.90
2023-01-21T02:11:18.173Z,97.80
2023-01-21T02:13:55.409Z,97.70
2023-01-21T02:17:12.975Z,97.60
2023-01-21T02:19:47.987Z,97.40
2023-01-21T02:22:55.555Z,97.20
2023-01-21T02:25:59.420Z,97.30
2023-01-21T02:29:08.223Z,97.00
2023-01-21T02:32:34.284Z,96.90
2023-01-21T02:35:22.062Z,96.70
2023-01-21T02:38:14.814Z,96.70
2023-01-21T02:41:27.288Z,96.70
2023-01-21T02:44:46.710Z,96.60
2023-01-21T02:47:50.021Z,96.20
2023-01-21T02:50:33.905Z,96.20
2023-01-21T02:53:05.967Z,96.30
2023-01-21T02:55:40.395Z,95.70
2023-01-21T02:58:16.088Z,95.60
2023-01-21T03:01:12.387Z,95.60
2023-01-21T03:04:07.231Z,95.50
2023-01-21T03:07:30.098Z,95.40
2023-01-21T03:10:17.146Z,95.40
2023-01-21T03:13:42.582Z,95.10
2023-01-21T03:16:33.548Z,95.10
2023-01-21T03:19:08.431Z,95.00
2023-01-21T03:21:38.696Z,94.90
2023-01-21T03:24:09.631Z,94.50
2023-01-21T03:26:47.617Z,94.40
2023-01-21T03:29:24.991Z,94.20
2023-01-21T03:32:04.897Z,93.90
2023-01-21T03:34:45.746Z,94.10
2023-01-21T03:37:42.929Z,94.10
2023-01-21T03:40:34.612Z,94.10
2023-01-21T03:43:04.945Z,94.10
2023-01-21T03:45:54.409Z,93.30
2023-01-21T03:48:53.201Z,93.30
2023-01-21T03:51:30.655Z,93.20
2023-01-21T03:54:01.553Z,93.40
2023-01-21T03:56:31.066Z,93.10
2023-01-21T03:59:00.326Z,92.30
2023-01-21T04:01:29.459Z,92.20
2023-01-21T04:03:58.618Z,92.20
2023-01-21T04:06:27.824Z,91.40
2023-01-21T04:08:56.952Z,91.30
2023-01-21T04:11:26.225Z,90.90
2023-01-21T04:13:55.352Z,91.30
2023-01-21T04:16:24.894Z,91.10
2023-01-21T04:18:54.999Z,91.20
2023-01-21T04:21:24.277Z,90.90
2023-01-21T04:23:53.372Z,90.60
2023-01-21T04:26:22.547Z,90.80
2023-01-21T04:28:51.676Z,90.70
2023-01-21T04:31:20.852Z,90.50
2023-01-21T04:33:49.942Z,90.20
2023-01-21T04:36:19.127Z,89.60
2023-01-21T04:38:48.377Z,89.90
2023-01-21T04:41:17.491Z,89.80
2023-01-21T04:43:46.719Z,89.40
2023-01-21T04:46:15.917Z,89.00
2023-01-21T04:48:45.101Z,88.90
2023-01-21T04:51:14.267Z,87.10
2023-01-21T04:53:43.410Z,87.10
2023-01-21T04:56:12.568Z,86.60
2023-01-21T04:58:41.666Z,85.80
2023-01-21T05:01:10.818Z,85.60
2023-01-21T05:03:39.995Z,85.50
2023-01-21T05:06:09.278Z,84.90
2023-01-21T05:08:38.397Z,84.50
2023-01-21T05:11:10.666Z,84.10
2023-01-21T05:13:39.782Z,84.20
2023-01-21T05:16:10.987Z,84.90
2023-01-21T05:18:41.726Z,84.60
2023-01-21T05:21:11.206Z,83.70
2023-01-21T05:23:40.397Z,82.80
2023-01-21T05:26:09.654Z,82.20
2023-01-21T05:28:38.867Z,81.60
2023-01-21T05:31:08.161Z,81.70
2023-01-21T05:33:37.949Z,82.00
2023-01-21T05:36:07.799Z,82.30
2023-01-21T05:38:36.993Z,80.80
2023-01-21T05:41:07.697Z,80.40
2023-01-21T05:43:36.922Z,80.30
2023-01-21T05:46:06.371Z,79.20
2023-01-21T05:48:35.627Z,79.90
2023-01-21T05:51:04.964Z,79.70
2023-01-21T05:53:34.215Z,80.80
2023-01-21T05:56:03.432Z,80.70
2023-01-21T05:58:32.632Z,80.30
2023-01-21T06:01:01.874Z,79.40
2023-01-21T06:03:31.339Z,78.20
2023-01-21T06:06:00.621Z,77.80
2023-01-21T06:08:29.886Z,78.30
2023-01-21T06:10:59.141Z,77.50
2023-01-21T06:13:28.455Z,76.50
2023-01-21T06:15:58.926Z,76.70
2023-01-21T06:18:28.218Z,76.50
2023-01-21T06:21:01.445Z,77.00
2023-01-21T06:23:30.829Z,76.60
2023-01-21T06:26:04.401Z,77.00
2023-01-21T06:28:33.575Z,76.80
2023-01-21T06:31:02.921Z,76.10
2023-01-21T06:33:32.167Z,76.10
2023-01-21T06:36:01.401Z,74.50
2023-01-21T06:38:30.703Z,74.20
2023-01-21T06:40:59.852Z,73.80
2023-01-21T06:43:29.030Z,73.70
2023-01-21T06:45:58.344Z,73.50
2023-01-21T06:48:27.593Z,74.10
2023-01-21T06:50:56.833Z,74.00
2023-01-21T06:53:26.405Z,74.70
2023-01-21T06:55:55.775Z,75.40
2023-01-21T06:58:25.265Z,74.80
2023-01-21T07:00:58.137Z,73.80
2023-01-21T07:03:27.438Z,73.10
2023-01-21T07:05:56.702Z,72.00
2023-01-21T07:08:25.972Z,72.50
2023-01-21T07:10:55.267Z,72.80
2023-01-21T07:13:24.626Z,71.80
2023-01-21T07:15:54.178Z,72.10
2023-01-21T07:18:23.392Z,72.00
2023-01-21T07:20:52.766Z,71.90
2023-01-21T07:23:21.996Z,71.50
2023-01-21T07:25:51.334Z,71.10
2023-01-21T07:28:21.337Z,70.70
2023-01-21T07:30:50.688Z,70.50
2023-01-21T07:33:20.143Z,70.50
2023-01-21T07:35:49.348Z,69.80
2023-01-21T07:38:18.802Z,70.30
2023-01-21T07:40:52.081Z,70.90
2023-01-21T07:43:21.285Z,70.60
2023-01-21T07:45:51.005Z,71.00
2023-01-21T07:48:20.370Z,71.40
2023-01-21T07:50:49.706Z,70.80
2023-01-21T07:53:18.923Z,70.90
2023-01-21T07:55:48.171Z,70.50
2023-01-21T07:58:17.475Z,70.50
2023-01-21T08:00:46.703Z,70.60
2023-01-21T08:03:16.002Z,70.30
2023-01-21T08:05:47.640Z,69.80
2023-01-21T08:08:16.997Z,69.30
2023-01-21T08:10:46.518Z,69.30
2023-01-21T08:13:15.737Z,70.10
2023-01-21T08:15:45.026Z,70.20
2023-01-21T08:18:14.232Z,70.50
2023-01-21T08:20:44.277Z,70.80
2023-01-21T08:23:13.737Z,70.30
2023-01-21T08:25:43.040Z,70.20
2023-01-21T08:28:12.277Z,70.30
2023-01-21T08:30:41.572Z,69.10
2023-01-21T08:33:10.916Z,68.80
2023-01-21T08:35:40.299Z,68.80
2023-01-21T08:38:09.617Z,68.00
2023-01-21T08:40:38.891Z,68.50
2023-01-21T08:43:10.038Z,68.00
2023-01-21T08:45:39.343Z,68.30
2023-01-21T08:48:08.846Z,68.70
2023-01-21T08:50:38.053Z,68.50
2023-01-21T08:53:07.285Z,68.20
2023-01-21T08:55:36.528Z,68.10
2023-01-21T08:58:05.886Z,68.30
2023-01-21T09:00:35.100Z,68.50
2023-01-21T09:03:04.555Z,69.00
2023-01-21T09:05:33.701Z,67.80
2023-01-21T09:08:02.908Z,67.70
2023-01-21T09:10:50.332Z,67.90
2023-01-21T09:13:20.963Z,68.00
2023-01-21T09:15:51.066Z,68.30
2023-01-21T09:18:20.390Z,67.60
2023-01-21T09:20:49.842Z,68.00
2023-01-21T09:23:25.404Z,68.00
2023-01-21T09:26:15.212Z,68.30
2023-01-21T09:28:47.940Z,68.20
2023-01-21T09:31:21.587Z,68.00
2023-01-21T09:33:56.588Z,67.90
2023-01-21T09:36:29.676Z,67.40
2023-01-21T09:38:59.705Z,67.60
2023-01-21T09:41:55.725Z,68.00
2023-01-21T09:44:47.863Z,68.20
2023-01-21T09:47:42.311Z,68.30
2023-01-21T09:50:23.338Z,68.40
2023-01-21T09:53:01.197Z,68.30
2023-01-21T09:55:45.520Z,68.70
2023-01-21T09:58:41.781Z,69.20
2023-01-21T10:01:22.192Z,69.60
2023-01-21T10:04:16.926Z,69.90
2023-01-21T10:07:17.897Z,70.70
2023-01-21T10:10:18.201Z,71.00
2023-01-21T10:13:23.971Z,71.40
2023-01-21T10:16:18.475Z,71.20
2023-01-21T10:18:52.328Z,71.20
2023-01-21T10:21:45.140Z,71.40
2023-01-21T10:24:34.615Z,71.60
2023-01-21T10:27:03.856Z,71.70
2023-01-21T10:29:39.157Z,72.00
2023-01-21T10:32:15.357Z,72.10
2023-01-21T10:34:54.622Z,72.30
2023-01-21T10:37:45.450Z,72.50
2023-01-21T10:40:46.450Z,72.70
2023-01-21T10:43:40.873Z,72.80
2023-01-21T10:47:11.037Z,73.10
2023-01-21T10:50:01.652Z,73.50
2023-01-21T10:52:41.802Z,73.90
2023-01-21T10:55:35.871Z,73.80
2023-01-21T10:58:29.524Z,74.40
2023-01-21T11:01:05.825Z,75.00
2023-01-21T11:03:55.966Z,75.30
2023-01-21T11:06:27.524Z,75.70
2023-01-21T11:09:06.369Z,76.30
2023-01-21T11:11:38.407Z,76.60
2023-01-21T11:14:07.713Z,77.30
2023-01-21T11:16:45.154Z,78.40
2023-01-21T11:19:18.569Z,79.00
2023-01-21T11:22:18.887Z,79.40
2023-01-21T11:24:51.536Z,79.90
2023-01-21T11:27:36.961Z,80.40
2023-01-21T11:30:26.076Z,80.70
2023-01-21T11:33:20.158Z,81.20
2023-01-21T11:35:50.496Z,81.20
2023-01-21T11:38:35.430Z,81.90
2023-01-21T11:41:17.500Z,82.30
2023-01-21T11:44:15.712Z,82.60
2023-01-21T11:46:44.944Z,82.70
2023-01-21T11:49:25.993Z,81.70
2023-01-21T11:52:20.343Z,83.60
2023-01-21T11:54:50.234Z,83.40
2023-01-21T11:57:34.959Z,83.80
2023-01-21T12:00:21.670Z,84.40
2023-01-21T12:03:03.219Z,84.60
2023-01-21T12:05:44.119Z,85.20
2023-01-21T12:08:24.249Z,85.30
2023-01-21T12:10:57.549Z,85.80
2023-01-21T12:14:06.049Z,85.60
2023-01-21T12:16:53.015Z,85.70
2023-01-21T12:20:04.579Z,86.20
2023-01-21T12:23:22.710Z,86.00
2023-01-21T12:26:16.173Z,86.00
2023-01-21T12:28:50.471Z,84.90
2023-01-21T12:31:56.553Z,86.80
2023-01-21T12:34:28.207Z,87.40
2023-01-21T12:37:12.860Z,87.70
2023-01-21T12:39:43.699Z,87.70
2023-01-21T12:42:35.714Z,87.80
2023-01-21T12:45:30.175Z,87.50
2023-01-21T12:48:26.149Z,87.60
2023-01-21T12:51:14.429Z,87.70
2023-01-21T12:54:10.406Z,88.30
2023-01-21T12:57:08.215Z,88.20
2023-01-21T13:00:02.054Z,88.10
2023-01-21T13:02:50.686Z,88.20
2023-01-21T13:05:51.813Z,88.50
2023-01-21T13:09:11.745Z,88.40
2023-01-21T13:12:12.764Z,88.80
2023-01-21T13:14:49.780Z,89.00
2023-01-21T13:17:29.539Z,89.90
2023-01-21T13:20:01.249Z,90.10
2023-01-21T13:22:43.800Z,90.10
2023-01-21T13:25:31.023Z,90.30
2023-01-21T13:28:35.010Z,90.40
2023-01-21T13:31:21.308Z,90.60
2023-01-21T13:34:21.627Z,90.80
2023-01-21T13:37:03.270Z,91.20
2023-01-21T13:39:43.096Z,91.30
2023-01-21T13:42:55.642Z,91.40
2023-01-21T13:45:54.889Z,91.60
2023-01-21T13:48:51.502Z,91.70
2023-01-21T13:52:03.400Z,91.80
2023-01-21T13:55:15.141Z,91.90
2023-01-21T13:58:07.739Z,91.80
2023-01-21T14:01:11.974Z,92.00
2023-01-21T14:04:07.592Z,91.80
2023-01-21T14:07:04.276Z,92.20
2023-01-21T14:10:03.515Z,92.10
2023-01-21T14:12:38.734Z,92.20
2023-01-21T14:15:48.774Z,92.70
2023-01-21T14:19:04.567Z,92.60
2023-01-21T14:22:03.928Z,92.70
2023-01-21T14:24:42.146Z,93.10
2023-01-21T14:27:59.196Z,93.20
2023-01-21T14:30:43.679Z,93.40
2023-01-21T14:33:26.344Z,93.60
2023-01-21T14:36:26.814Z,93.50
2023-01-21T14:39:08.057Z,93.80
2023-01-21T14:42:03.768Z,93.90
2023-01-21T14:44:55.612Z,93.80
2023-01-21T14:47:33.862Z,93.90
2023-01-21T14:50:03.273Z,94.00
2023-01-21T14:52:47.953Z,94.10
2023-01-21T14:55:32.787Z,94.10
2023-01-21T14:58:03.137Z,94.20
2023-01-21T15:00:34.747Z,94.30
2023-01-21T15:03:30.214Z,94.40
2023-01-21T15:06:10.751Z,94.60
2023-01-21T15:08:47.909Z,94.60
2023-01-21T15:11:45.190Z,94.70
2023-01-21T15:14:47.053Z,94.70
2023-01-21T15:18:01.600Z,94.80
2023-01-21T15:21:02.199Z,94.50
2023-01-21T15:23:34.290Z,94.60
2023-01-21T15:26:09.859Z,95.00
2023-01-21T15:28:52.893Z,95.20
2023-01-21T15:31:25.618Z,94.80
2023-01-21T15:34:15.563Z,94.80
2023-01-21T15:36:58.045Z,94.80
2023-01-21T15:39:36.521Z,94.70
2023-01-21T15:42:46.807Z,94.60
2023-01-21T15:45:45.865Z,94.50
2023-01-21T15:48:41.833Z,94.60
2023-01-21T15:51:48.010Z,94.50
2023-01-21T15:54:25.963Z,94.50
2023-01-21T15:57:40.403Z,94.60
2023-01-21T16:00:50.662Z,94.70
2023-01-21T16:03:28.737Z,94.60
2023-01-21T16:06:16.013Z,94.60
2023-01-21T16:09:03.071Z,94.70
2023-01-21T16:12:25.659Z,94.90
2023-01-21T16:15:12.675Z,94.80
2023-01-21T16:18:11.476Z,94.80
2023-01-21T16:20:50.823Z,94.90
2023-01-21T16:23:23.555Z,94.90
2023-01-21T16:25:54.829Z,95.00
2023-01-21T16:28:23.919Z,95.10
2023-01-21T16:31:00.580Z,95.10
2023-01-21T16:33:29.781Z,95.10
2023-01-21T16:36:07.298Z,95.20
2023-01-21T16:38:39.010Z,95.20
2023-01-21T16:41:16.983Z,95.50
2023-01-21T16:43:51.925Z,95.50
2023-01-21T16:46:42.710Z,95.60
2023-01-21T16:49:19.954Z,95.60
2023-01-21T16:52:07.613Z,95.70
2023-01-21T16:54:48.069Z,95.60
2023-01-21T16:57:20.410Z,95.50
2023-01-21T16:59:49.968Z,95.40
2023-01-21T17:02:45.489Z,95.40
2023-01-21T17:05:16.537Z,95.50
2023-01-21T17:08:00.175Z,95.50
2023-01-21T17:10:40.106Z,95.50
2023-01-21T17:13:17.091Z,95.60
2023-01-21T17:16:01.062Z,95.80
2023-01-21T17:18:41.643Z,95.90
2023-01-21T17:21:16.793Z,95.80
2023-01-21T17:23:52.013Z,95.80
2023-01-21T17:26:32.982Z,95.80
2023-01-21T17:29:19.345Z,95.80
2023-01-21T17:32:26.666Z,95.90
2023-01-21T17:35:17.053Z,95.80
2023-01-21T17:38:04.544Z,95.70
2023-01-21T17:40:47.048Z,95.70
2023-01-21T17:43:25.867Z,95.60
2023-01-21T17:45:58.348Z,95.60
2023-01-21T17:48:40.486Z,95.70
2023-01-21T17:51:23.313Z,95.70
2023-01-21T17:54:01.038Z,95.80
2023-01-21T17:56:54.752Z,96.10
2023-01-21T17:59:35.474Z,95.70
2023-01-21T18:02:17.174Z,95.90
2023-01-21T18:04:47.365Z,96.00
2023-01-21T18:07:32.737Z,96.10
2023-01-21T18:10:04.207Z,96.20
2023-01-21T18:12:33.455Z,96.20
2023-01-21T18:15:03.605Z,96.50
2023-01-21T18:17:33.278Z,96.50
2023-01-21T18:20:05.691Z,96.60
2023-01-21T18:22:36.928Z,96.60
2023-01-21T18:25:08.361Z,96.70
2023-01-21T18:27:38.148Z,96.60
2023-01-21T18:30:23.774Z,96.60
2023-01-21T18:32:54.174Z,96.50
2023-01-21T18:35:29.760Z,96.60
2023-01-21T18:37:59.168Z,96.50
2023-01-21T18:40:28.462Z,96.50
2023-01-21T18:42:57.710Z,96.70
2023-01-21T18:45:30.602Z,96.70
2023-01-21T18:48:00.353Z,96.80
2023-01-21T18:50:31.604Z,96.90
2023-01-21T18:53:00.798Z,96.90
2023-01-21T18:55:31.316Z,97.00
2023-01-21T18:58:00.550Z,97.10
2023-01-21T19:00:35.462Z,97.40
2023-01-21T19:03:04.765Z,97.50
2023-01-21T19:05:40.108Z,97.50
2023-01-21T19:08:25.486Z,97.60
2023-01-21T19:10:55.203Z,97.50
2023-01-21T19:13:25.170Z,97.40
2023-01-21T19:15:54.494Z,97.40
2023-01-21T19:18:23.568Z,97.30
2023-01-21T19:20:52.696Z,96.80
2023-01-21T19:23:21.853Z,97.00
2023-01-21T19:25:57.004Z,96.90
2023-01-21T19:28:26.855Z,97.40
2023-01-21T19:30:56.221Z,97.40
2023-01-21T19:33:26.805Z,97.50
2023-01-21T19:36:04.673Z,97.50
2023-01-21T19:38:33.798Z,97.50
2023-01-21T19:41:02.877Z,97.60
2023-01-21T19:43:32.062Z,97.60
2023-01-21T19:46:01.204Z,97.70
2023-01-21T19:48:30.754Z,97.70
2023-01-21T19:50:59.878Z,98.10
2023-01-21T19:53:29.102Z,98.10
2023-01-21T19:55:59.275Z,98.10
2023-01-21T19:58:31.826Z,98.20
2023-01-21T20:01:01.065Z,98.30
2023-01-21T20:03:30.665Z,98.40
2023-01-21T20:06:06.753Z,98.50
2023-01-21T20:08:35.997Z,98.60
2023-01-21T20:11:05.285Z,98.70
2023-01-21T20:13:37.484Z,98.60
2023-01-21T20:16:19.717Z,98.50
2023-01-21T20:18:50.748Z,98.50
2023-01-21T20:21:19.821Z,98.30
2023-01-21T20:23:49.080Z,98.20
2023-01-21T20:26:28.603Z,98.00
2023-01-21T20:28:58.747Z,97.90
2023-01-21T20:31:28.001Z,98.00
2023-01-21T20:33:57.504Z,98.00
2023-01-21T20:36:28.765Z,98.10
2023-01-21T20:38:58.251Z,98.30
2023-01-21T20:41:27.324Z,98.50
2023-01-21T20:43:56.501Z,98.60
2023-01-21T20:46:30.694Z,98.60
2023-01-21T20:49:01.141Z,98.90
2023-01-21T20:51:30.689Z,98.50
2023-01-21T20:53:59.760Z,98.50
2023-01-21T20:56:33.987Z,98.50
2023-01-21T20:59:03.143Z,98.60
2023-01-21T21:01:35.577Z,98.70
2023-01-21T21:04:04.746Z,99.00
2023-01-21T21:06:34.457Z,99.00
2023-01-21T21:09:03.712Z,99.00
2023-01-21T21:11:32.787Z,98.80
2023-01-21T21:14:02.948Z,98.60
2023-01-21T21:16:34.801Z,98.60
2023-01-21T21:19:04.925Z,98.60
2023-01-21T21:21:34.096Z,98.40
2023-01-21T21:24:07.354Z,98.50
2023-01-21T21:26:39.426Z,98.60
2023-01-21T21:29:15.199Z,98.90
2023-01-21T21:31:44.465Z,98.80
2023-01-21T21:34:14.515Z,98.70
2023-01-21T21:36:43.984Z,98.70
2023-01-21T21:39:20.072Z,98.80
2023-01-21T21:42:07.227Z,98.60
2023-01-21T21:44:37.327Z,98.60
2023-01-21T21:47:24.494Z,98.60
2023-01-21T21:49:53.674Z,98.80
2023-01-21T21:52:23.935Z,98.80
2023-01-21T21:54:55.200Z,99.00
2023-01-21T21:57:24.290Z,99.00
2023-01-21T21:59:53.346Z,98.90
2023-01-21T22:02:22.549Z,98.90
2023-01-21T22:04:55.815Z,99.10
2023-01-21T22:07:24.969Z,99.20
2023-01-21T22:09:54.054Z,99.10
2023-01-21T22:12:23.165Z,99.00
2023-01-21T22:14:52.320Z,99.10
2023-01-21T22:17:21.415Z,99.10
2023-01-21T22:19:50.502Z,99.20
2023-01-21T22:22:19.656Z,99.20
2023-01-21T22:24:48.757Z,99.20
2023-01-21T22:27:17.954Z,99.40
2023-01-21T22:29:47.027Z,99.30
2023-01-21T22:32:17.178Z,99.30
2023-01-21T22:34:46.251Z,99.20
2023-01-21T22:37:15.391Z,99.30
2023-01-21T22:39:44.522Z,99.30
2023-01-21T22:42:13.582Z,99.30
2023-01-21T22:44:42.742Z,99.30
2023-01-21T22:47:12.476Z,99.30
2023-01-21T22:49:42.826Z,99.30
2023-01-21T22:52:11.955Z,99.20
2023-01-21T22:54:41.455Z,99.40
2023-01-21T22:57:10.552Z,99.50
2023-01-21T22:59:40.878Z,99.50
2023-01-21T23:02:10.009Z,99.40
2023-01-21T23:04:40.073Z,99.30
2023-01-21T23:07:09.331Z,99.30
2023-01-21T23:09:38.424Z,99.50
2023-01-21T23:12:10.036Z,99.50
2023-01-21T23:14:41.202Z,99.50
2023-01-21T23:17:10.377Z,99.70
2023-01-21T23:19:39.558Z,99.60
2023-01-21T23:22:08.765Z,99.60
2023-01-21T23:24:37.847Z,99.50
2023-01-21T23:27:06.999Z,99.40
2023-01-21T23:29:36.058Z,99.40
2023-01-21T23:32:05.480Z,99.30
2023-01-21T23:34:34.742Z,99.50
2023-01-21T23:37:03.856Z,99.50
2023-01-21T23:39:32.956Z,99.50
2023-01-21T23:42:02.268Z,99.40
2023-01-21T23:44:31.404Z,99.50
2023-01-21T23:47:00.482Z,99.40
2023-01-21T23:49:29.579Z,99.30
2023-01-21T23:51:58.659Z,99.30
2023-01-21T23:54:27.746Z,99.50
2023-01-21T23:56:57.593Z,99.30
2023-01-21T23:59:26.928Z,99.40
